createdAt,value
2018-09-25T00:00:07.957Z,0
2018-09-25T00:01:08.944Z,0
2018-09-25T00:02:09.808Z,0
2018-09-25T00:03:10.599Z,0
2018-09-25T00:04:11.360Z,0
2018-09-25T00:05:12.147Z,0
2018-09-25T00:06:13.134Z,0
2018-09-25T00:07:14.102Z,0
2018-09-25T00:08:14.869Z,0
2018-09-25T00:09:15.841Z,0
2018-09-25T00:12:36.223Z,0
2018-09-25T00:13:37.599Z,0
2018-09-25T00:14:38.584Z,0
2018-09-25T00:16:55.157Z,0
2018-09-25T00:17:55.944Z,0
2018-09-25T00:18:57.039Z,0
2018-09-25T00:19:59.172Z,0
2018-09-25T00:21:00.504Z,0
2018-09-25T00:22:01.686Z,0
2018-09-25T00:23:03.300Z,0
2018-09-25T00:24:04.653Z,0
2018-09-25T00:25:05.719Z,0
2018-09-25T00:26:06.992Z,0
2018-09-25T00:27:08.370Z,0
2018-09-25T00:28:09.790Z,0
2018-09-25T00:29:11.631Z,0
2018-09-25T00:31:08.201Z,0
2018-09-25T00:36:44.364Z,0
2018-09-25T00:37:45.705Z,0
2018-09-25T00:38:46.865Z,0
2018-09-25T00:39:48.218Z,0
2018-09-25T00:40:49.222Z,0
2018-09-25T00:41:50.262Z,0
2018-09-25T00:42:51.073Z,0
2018-09-25T00:43:52.290Z,0
2018-09-25T00:44:53.973Z,0
2018-09-25T00:45:55.086Z,0
2018-09-25T00:46:56.215Z,0
2018-09-25T00:47:57.096Z,0
2018-09-25T00:48:58.451Z,0
2018-09-25T00:50:00.320Z,0
2018-09-25T00:51:01.634Z,0
2018-09-25T00:52:02.611Z,0
2018-09-25T00:55:04.579Z,0
2018-09-25T00:56:05.702Z,0
2018-09-25T00:57:06.563Z,0
2018-09-25T00:58:07.626Z,0
2018-09-25T00:59:08.410Z,0
2018-09-25T01:00:09.271Z,0
2018-09-25T01:02:25.890Z,0
2018-09-25T01:03:26.662Z,0
2018-09-25T01:04:27.463Z,0
2018-09-25T01:05:28.515Z,0
2018-09-25T01:06:29.290Z,0
2018-09-25T01:07:30.357Z,0
2018-09-25T01:08:31.330Z,0
2018-09-25T01:09:32.314Z,0
2018-09-25T01:10:33.285Z,0
2018-09-25T01:11:34.316Z,0
2018-09-25T01:12:35.311Z,0
2018-09-25T01:13:36.321Z,0
2018-09-25T01:14:37.280Z,0
2018-09-25T01:15:38.504Z,0
2018-09-25T01:16:39.469Z,0
2018-09-25T01:17:40.513Z,0
2018-09-25T01:18:41.731Z,0
2018-09-25T01:19:42.730Z,0
2018-09-25T01:20:43.552Z,0
2018-09-25T01:21:44.345Z,0
2018-09-25T01:22:45.173Z,0
2018-09-25T01:23:46.051Z,0
2018-09-25T01:24:46.998Z,0
2018-09-25T01:25:47.942Z,0
2018-09-25T01:26:48.761Z,0
2018-09-25T01:27:49.689Z,0
2018-09-25T01:28:50.760Z,0
2018-09-25T01:29:51.637Z,0
2018-09-25T01:30:52.450Z,0
2018-09-25T01:31:53.563Z,0
2018-09-25T01:32:54.752Z,0
2018-09-25T01:33:55.757Z,0
2018-09-25T01:34:56.952Z,0
2018-09-25T01:35:57.946Z,0
2018-09-25T01:36:58.843Z,0
2018-09-25T01:37:59.617Z,0
2018-09-25T01:39:00.419Z,0
2018-09-25T01:40:01.202Z,0
2018-09-25T01:41:01.966Z,0
2018-09-25T01:42:02.753Z,0
2018-09-25T01:43:03.493Z,0
2018-09-25T01:44:04.314Z,0
2018-09-25T01:45:05.292Z,0
2018-09-25T01:46:06.288Z,0
2018-09-25T01:47:07.327Z,0
2018-09-25T01:48:08.316Z,0
2018-09-25T01:49:09.661Z,0
2018-09-25T01:50:10.463Z,0
2018-09-25T01:51:11.268Z,0
2018-09-25T01:52:12.054Z,0
2018-09-25T01:53:12.845Z,0
2018-09-25T01:54:14.022Z,0
2018-09-25T01:55:14.793Z,0
2018-09-25T01:56:15.542Z,0
2018-09-25T01:57:16.525Z,0
2018-09-25T01:58:17.753Z,0
2018-09-25T01:59:18.780Z,0
2018-09-25T02:00:19.748Z,0
2018-09-25T02:01:20.721Z,0
2018-09-25T02:02:21.700Z,0
2018-09-25T02:03:22.480Z,0
2018-09-25T02:04:23.286Z,0
2018-09-25T02:05:24.334Z,0
2018-09-25T02:06:25.351Z,0
2018-09-25T02:07:26.157Z,0
2018-09-25T02:08:26.954Z,0
2018-09-25T02:09:27.945Z,0
2018-09-25T02:10:28.931Z,0
2018-09-25T02:11:29.925Z,0
2018-09-25T02:12:30.944Z,0
2018-09-25T02:13:31.926Z,0
2018-09-25T02:14:32.708Z,0
2018-09-25T02:15:33.492Z,0
2018-09-25T02:16:34.298Z,0
2018-09-25T02:17:35.103Z,0
2018-09-25T02:18:35.854Z,0
2018-09-25T02:19:36.640Z,0
2018-09-25T02:20:37.616Z,0
2018-09-25T02:21:38.618Z,0
2018-09-25T02:22:39.588Z,0
2018-09-25T02:23:40.840Z,0
2018-09-25T02:24:41.605Z,0
2018-09-25T02:25:42.421Z,0
2018-09-25T02:26:43.192Z,0
2018-09-25T02:27:44.374Z,0
2018-09-25T02:28:45.158Z,0
2018-09-25T02:29:46.158Z,0
2018-09-25T02:30:46.941Z,0
2018-09-25T02:31:47.988Z,0
2018-09-25T02:32:49.093Z,0
2018-09-25T02:33:50.074Z,0
2018-09-25T02:34:51.051Z,0
2018-09-25T02:35:52.037Z,0
2018-09-25T02:36:53.763Z,0
2018-09-25T02:37:54.824Z,0
2018-09-25T02:38:55.606Z,0
2018-09-25T02:39:57.866Z,0
2018-09-25T02:40:58.397Z,0
2018-09-25T02:41:59.391Z,0
2018-09-25T02:43:01.200Z,0
2018-09-25T02:44:02.309Z,0
2018-09-25T02:45:03.455Z,0
2018-09-25T02:46:04.463Z,0
2018-09-25T02:47:05.656Z,0
2018-09-25T02:48:06.555Z,0
2018-09-25T02:49:07.500Z,0
2018-09-25T02:50:08.474Z,0
2018-09-25T02:51:09.407Z,0
2018-09-25T02:52:10.218Z,0
2018-09-25T02:53:11.412Z,0
2018-09-25T02:54:12.431Z,0
2018-09-25T02:55:13.514Z,0
2018-09-25T02:56:14.653Z,0
2018-09-25T02:57:15.747Z,0
2018-09-25T02:58:16.927Z,0
2018-09-25T02:59:18.203Z,0
2018-09-25T03:00:19.252Z,0
2018-09-25T03:01:20.064Z,0
2018-09-25T03:02:21.414Z,0
2018-09-25T03:03:22.196Z,0
2018-09-25T03:04:23.496Z,0
2018-09-25T03:05:24.470Z,0
2018-09-25T03:06:25.499Z,0
2018-09-25T03:07:26.287Z,0
2018-09-25T03:08:27.070Z,0
2018-09-25T03:09:28.108Z,0
2018-09-25T03:10:28.883Z,0
2018-09-25T03:11:29.687Z,0
2018-09-25T03:12:30.472Z,0
2018-09-25T03:13:31.270Z,0
2018-09-25T03:14:32.038Z,0
2018-09-25T03:15:32.861Z,0
2018-09-25T03:16:33.633Z,0
2018-09-25T03:17:34.420Z,0
2018-09-25T03:18:35.177Z,0
2018-09-25T03:19:36.139Z,0
2018-09-25T03:20:37.209Z,0
2018-09-25T03:21:38.259Z,0
2018-09-25T03:22:39.233Z,0
2018-09-25T03:23:40.223Z,0
2018-09-25T03:24:40.987Z,0
2018-09-25T03:25:41.798Z,0
2018-09-25T03:26:42.582Z,0
2018-09-25T03:27:43.364Z,0
2018-09-25T03:28:44.145Z,0
2018-09-25T03:29:44.901Z,0
2018-09-25T03:30:45.665Z,0
2018-09-25T03:31:46.492Z,0
2018-09-25T03:32:47.493Z,0
2018-09-25T03:33:48.459Z,0
2018-09-25T03:34:49.467Z,0
2018-09-25T03:35:50.725Z,0
2018-09-25T03:36:51.750Z,0
2018-09-25T03:37:52.537Z,0
2018-09-25T03:38:53.330Z,0
2018-09-25T03:39:54.079Z,0
2018-09-25T03:40:54.846Z,0
2018-09-25T03:41:55.710Z,0
2018-09-25T03:42:56.491Z,0
2018-09-25T03:43:57.254Z,0
2018-09-25T03:44:58.243Z,0
2018-09-25T03:45:59.234Z,0
2018-09-25T03:47:00.016Z,0
2018-09-25T03:48:00.987Z,0
2018-09-25T03:49:01.776Z,0
2018-09-25T03:50:02.777Z,0
2018-09-25T03:51:03.596Z,0
2018-09-25T03:52:04.410Z,0
2018-09-25T03:53:05.561Z,0
2018-09-25T03:54:06.344Z,0
2018-09-25T03:55:07.101Z,0
2018-09-25T03:56:07.859Z,0
2018-09-25T03:57:08.838Z,0
2018-09-25T03:58:09.817Z,0
2018-09-25T03:59:10.795Z,0
2018-09-25T04:00:11.819Z,0
2018-09-25T04:01:12.800Z,0
2018-09-25T04:02:13.789Z,0
2018-09-25T04:03:14.798Z,0
2018-09-25T04:04:15.578Z,0
2018-09-25T04:05:16.362Z,0
2018-09-25T04:06:17.358Z,0
2018-09-25T04:07:18.097Z,0
2018-09-25T04:08:18.973Z,0
2018-09-25T04:09:19.902Z,0
2018-09-25T04:10:20.915Z,0
2018-09-25T04:11:22.213Z,0
2018-09-25T04:12:23.270Z,0
2018-09-25T04:13:24.462Z,0
2018-09-25T04:14:25.498Z,0
2018-09-25T04:15:26.404Z,0
2018-09-25T04:16:27.726Z,0
2018-09-25T04:17:28.611Z,0
2018-09-25T04:18:29.466Z,0
2018-09-25T04:19:30.685Z,0
2018-09-25T04:20:31.508Z,0
2018-09-25T04:21:32.531Z,0
2018-09-25T04:22:33.705Z,0
2018-09-25T04:23:34.717Z,0
2018-09-25T04:24:35.526Z,0
2018-09-25T04:25:36.543Z,0
2018-09-25T04:26:37.553Z,0
2018-09-25T04:27:38.399Z,0
2018-09-25T04:28:39.393Z,0
2018-09-25T04:29:40.172Z,0
2018-09-25T04:30:41.204Z,0
2018-09-25T04:31:41.981Z,0
2018-09-25T04:32:42.911Z,0
2018-09-25T04:33:43.673Z,0
2018-09-25T04:34:44.455Z,0
2018-09-25T04:35:45.453Z,0
2018-09-25T04:36:46.440Z,0
2018-09-25T04:37:47.266Z,0
2018-09-25T04:38:48.253Z,0
2018-09-25T04:39:49.034Z,0
2018-09-25T04:40:49.820Z,0
2018-09-25T04:41:50.584Z,0
2018-09-25T04:42:51.665Z,0
2018-09-25T04:43:52.424Z,0
2018-09-25T04:44:53.440Z,0
2018-09-25T04:45:54.405Z,0
2018-09-25T04:46:55.419Z,0
2018-09-25T04:47:56.713Z,0
2018-09-25T04:48:57.664Z,0
2018-09-25T04:49:58.657Z,0
2018-09-25T04:50:59.425Z,0
2018-09-25T04:52:00.197Z,0
2018-09-25T04:53:00.978Z,0
2018-09-25T04:54:01.798Z,0
2018-09-25T04:55:02.572Z,0
2018-09-25T04:56:03.324Z,0
2018-09-25T04:57:04.098Z,0
2018-09-25T04:58:05.071Z,0
2018-09-25T04:59:06.094Z,0
2018-09-25T05:00:07.127Z,0
2018-09-25T05:01:08.107Z,0
2018-09-25T05:02:08.885Z,0
2018-09-25T05:03:09.882Z,0
2018-09-25T05:04:10.688Z,0
2018-09-25T05:05:11.809Z,0
2018-09-25T05:06:12.596Z,5
2018-09-25T05:07:13.367Z,5
2018-09-25T05:08:14.145Z,5
2018-09-25T05:09:14.897Z,5
2018-09-25T05:10:15.957Z,5
2018-09-25T05:11:16.930Z,5
2018-09-25T05:12:17.900Z,5
2018-09-25T05:13:18.887Z,11
2018-09-25T05:14:19.871Z,11
2018-09-25T05:15:20.895Z,11
2018-09-25T05:16:21.888Z,11
2018-09-25T05:17:22.686Z,16
2018-09-25T05:18:23.537Z,16
2018-09-25T05:19:24.322Z,16
2018-09-25T05:20:25.456Z,22
2018-09-25T05:21:26.476Z,22
2018-09-25T05:22:27.248Z,22
2018-09-25T05:23:28.300Z,28
2018-09-25T05:24:29.209Z,28
2018-09-25T05:25:30.186Z,33
2018-09-25T05:26:31.171Z,33
2018-09-25T05:27:31.945Z,39
2018-09-25T05:28:32.927Z,39
2018-09-25T05:29:33.723Z,39
2018-09-25T05:30:34.956Z,45
2018-09-25T05:31:35.920Z,45
2018-09-25T05:32:36.754Z,45
2018-09-25T05:33:37.873Z,45
2018-09-25T05:34:38.938Z,50
2018-09-25T05:35:40.094Z,50
2018-09-25T05:36:41.186Z,56
2018-09-25T05:37:41.995Z,56
2018-09-25T05:38:42.890Z,61
2018-09-25T05:39:43.708Z,61
2018-09-25T05:40:44.533Z,67
2018-09-25T05:41:45.315Z,73
2018-09-25T05:42:46.093Z,78
2018-09-25T05:43:46.876Z,78
2018-09-25T05:44:47.664Z,78
2018-09-25T05:45:48.466Z,78
2018-09-25T05:46:49.638Z,84
2018-09-25T05:47:50.612Z,84
2018-09-25T05:48:51.663Z,84
2018-09-25T05:49:52.579Z,90
2018-09-25T05:50:53.595Z,90
2018-09-25T05:51:54.574Z,90
2018-09-25T05:52:55.345Z,90
2018-09-25T05:53:56.111Z,95
2018-09-25T05:54:56.890Z,101
2018-09-25T05:55:57.672Z,101
2018-09-25T05:56:58.512Z,106
2018-09-25T05:57:59.298Z,106
2018-09-25T05:59:00.340Z,112
2018-09-25T06:00:01.395Z,112
2018-09-25T06:01:02.462Z,118
2018-09-25T06:02:03.410Z,118
2018-09-25T06:03:04.379Z,123
2018-09-25T06:04:05.356Z,123
2018-09-25T06:05:06.858Z,123
2018-09-25T06:06:09.052Z,129
2018-09-25T06:07:10.550Z,129
2018-09-25T06:08:11.519Z,129
2018-09-25T06:09:12.745Z,129
2018-09-25T06:10:13.701Z,135
2018-09-25T06:11:14.687Z,135
2018-09-25T06:12:15.445Z,135
2018-09-25T06:13:16.668Z,135
2018-09-25T06:14:17.443Z,140
2018-09-25T06:15:18.435Z,140
2018-09-25T06:16:19.208Z,140
2018-09-25T06:17:19.986Z,140
2018-09-25T06:18:20.779Z,146
2018-09-25T06:19:21.600Z,146
2018-09-25T06:20:22.375Z,146
2018-09-25T06:21:23.354Z,151
2018-09-25T06:22:24.339Z,157
2018-09-25T06:23:25.324Z,151
2018-09-25T06:24:26.656Z,157
2018-09-25T06:25:27.649Z,157
2018-09-25T06:26:28.630Z,163
2018-09-25T06:27:29.404Z,163
2018-09-25T06:28:30.188Z,163
2018-09-25T06:29:31.341Z,163
2018-09-25T06:30:32.116Z,168
2018-09-25T06:31:33.158Z,168
2018-09-25T06:32:33.912Z,174
2018-09-25T06:33:34.899Z,180
2018-09-25T06:34:35.891Z,185
2018-09-25T06:35:37.023Z,185
2018-09-25T06:36:38.003Z,208
2018-09-25T06:37:38.998Z,219
2018-09-25T06:38:40.018Z,230
2018-09-25T06:39:40.764Z,247
2018-09-25T06:40:41.817Z,258
2018-09-25T06:41:42.971Z,258
2018-09-25T06:42:43.755Z,281
2018-09-25T06:43:44.527Z,298
2018-09-25T06:44:45.298Z,315
2018-09-25T06:45:46.054Z,331
2018-09-25T06:46:47.097Z,326
2018-09-25T06:47:48.077Z,320
2018-09-25T06:48:49.051Z,292
2018-09-25T06:49:50.024Z,270
2018-09-25T06:50:51.023Z,241
2018-09-25T06:51:52.014Z,230
2018-09-25T06:52:53.015Z,219
2018-09-25T06:53:54.143Z,230
2018-09-25T06:54:55.888Z,241
2018-09-25T06:55:57.214Z,253
2018-09-25T06:56:58.439Z,253
2018-09-25T06:57:59.693Z,258
2018-09-25T06:59:00.721Z,270
2018-09-25T07:00:01.700Z,258
2018-09-25T07:01:02.743Z,253
2018-09-25T07:02:03.706Z,241
2018-09-25T07:03:04.685Z,236
2018-09-25T07:04:05.453Z,236
2018-09-25T07:05:06.971Z,230
2018-09-25T07:06:07.806Z,230
2018-09-25T07:07:08.647Z,230
2018-09-25T07:08:09.452Z,236
2018-09-25T07:09:10.238Z,241
2018-09-25T07:10:11.232Z,241
2018-09-25T07:11:12.007Z,241
2018-09-25T07:12:12.992Z,241
2018-09-25T07:13:13.972Z,241
2018-09-25T07:14:14.971Z,236
2018-09-25T07:15:15.776Z,236
2018-09-25T07:16:16.751Z,236
2018-09-25T07:17:17.538Z,241
2018-09-25T07:18:18.369Z,236
2018-09-25T07:19:19.145Z,241
2018-09-25T07:20:20.127Z,253
2018-09-25T07:21:20.907Z,264
2018-09-25T07:22:21.695Z,270
2018-09-25T07:23:22.495Z,281
2018-09-25T07:24:23.326Z,286
2018-09-25T07:25:24.283Z,292
2018-09-25T07:26:25.271Z,309
2018-09-25T07:27:26.267Z,337
2018-09-25T07:28:27.306Z,365
2018-09-25T07:29:28.300Z,433
2018-09-25T07:30:29.272Z,489
2018-09-25T07:31:30.264Z,556
2018-09-25T07:32:31.051Z,585
2018-09-25T07:33:32.147Z,585
2018-09-25T07:34:33.134Z,562
2018-09-25T07:35:33.916Z,511
2018-09-25T07:36:34.699Z,472
2018-09-25T07:37:35.491Z,450
2018-09-25T07:38:36.487Z,444
2018-09-25T07:39:37.490Z,455
2018-09-25T07:40:38.467Z,455
2018-09-25T07:41:39.453Z,461
2018-09-25T07:42:40.432Z,466
2018-09-25T07:43:41.497Z,478
2018-09-25T07:44:42.303Z,495
2018-09-25T07:45:43.054Z,495
2018-09-25T07:46:43.836Z,495
2018-09-25T07:47:44.615Z,489
2018-09-25T07:48:45.447Z,483
2018-09-25T07:49:46.246Z,478
2018-09-25T07:50:47.036Z,495
2018-09-25T07:51:47.820Z,545
2018-09-25T07:52:48.792Z,540
2018-09-25T07:53:50.097Z,517
2018-09-25T07:54:50.872Z,450
2018-09-25T07:55:51.884Z,427
2018-09-25T07:56:53.145Z,393
2018-09-25T07:57:54.142Z,371
2018-09-25T07:58:55.126Z,376
2018-09-25T07:59:55.925Z,405
2018-09-25T08:00:56.728Z,450
2018-09-25T08:01:57.575Z,511
2018-09-25T08:02:58.410Z,551
2018-09-25T08:03:59.139Z,607
2018-09-25T08:05:00.123Z,663
2018-09-25T08:06:01.125Z,697
2018-09-25T08:07:02.170Z,753
2018-09-25T08:08:03.166Z,1108
2018-09-25T08:09:04.191Z,1108
2018-09-25T08:10:05.173Z,1035
2018-09-25T08:11:05.978Z,911
2018-09-25T08:12:07.035Z,635
2018-09-25T08:13:07.845Z,607
2018-09-25T08:14:08.643Z,613
2018-09-25T08:15:09.450Z,1136
2018-09-25T08:16:10.264Z,1873
2018-09-25T08:17:11.560Z,1383
2018-09-25T08:18:12.345Z,1395
2018-09-25T08:19:13.115Z,1445
2018-09-25T08:20:13.908Z,961
2018-09-25T08:21:14.975Z,1721
2018-09-25T08:22:16.638Z,1687
2018-09-25T08:23:17.556Z,1693
2018-09-25T08:24:18.593Z,1771
2018-09-25T08:25:19.633Z,1845
2018-09-25T08:27:22.040Z,1856
2018-09-25T08:28:22.881Z,1850
2018-09-25T08:29:23.695Z,1839
2018-09-25T08:30:24.521Z,1771
2018-09-25T08:31:25.602Z,1800
2018-09-25T08:32:26.441Z,1833
2018-09-25T08:33:28.204Z,1861
2018-09-25T08:34:29.372Z,1867
2018-09-25T08:35:30.826Z,1755
2018-09-25T08:36:32.267Z,1946
2018-09-25T08:37:33.528Z,579
2018-09-25T08:38:34.542Z,686
2018-09-25T08:40:51.146Z,1901
2018-09-25T08:41:51.973Z,1901
2018-09-25T08:42:52.782Z,2086
2018-09-25T08:43:53.574Z,2227
2018-09-25T08:44:54.619Z,1670
2018-09-25T08:45:55.484Z,1873
2018-09-25T08:46:56.427Z,1985
2018-09-25T08:47:57.456Z,2058
2018-09-25T08:50:14.081Z,2176
2018-09-25T08:51:15.130Z,2176
2018-09-25T08:52:15.951Z,2390
2018-09-25T08:53:16.740Z,2407
2018-09-25T08:54:17.520Z,2407
2018-09-25T08:55:18.521Z,2289
2018-09-25T08:56:19.590Z,2008
2018-09-25T08:57:20.372Z,2002
2018-09-25T08:58:21.414Z,1935
2018-09-25T08:59:22.256Z,1839
2018-09-25T09:00:23.326Z,2143
2018-09-25T09:01:24.129Z,2244
2018-09-25T09:02:24.930Z,2278
2018-09-25T09:03:26.029Z,2317
2018-09-25T09:04:26.853Z,2272
2018-09-25T09:05:28.035Z,2193
2018-09-25T09:06:28.804Z,2165
2018-09-25T09:07:29.813Z,2154
2018-09-25T09:08:30.803Z,2047
2018-09-25T09:09:32.051Z,2036
2018-09-25T09:10:33.308Z,1951
2018-09-25T09:11:34.576Z,1800
2018-09-25T09:12:35.799Z,1721
2018-09-25T09:13:36.741Z,1693
2018-09-25T09:14:37.749Z,1743
2018-09-25T09:15:38.740Z,1771
2018-09-25T09:16:39.768Z,1816
2018-09-25T09:17:40.786Z,1648
2018-09-25T09:18:41.789Z,1800
2018-09-25T09:19:42.604Z,2098
2018-09-25T09:20:43.408Z,2137
2018-09-25T09:21:44.199Z,2171
2018-09-25T09:22:45.081Z,2171
2018-09-25T09:23:45.897Z,2210
2018-09-25T09:24:47.294Z,2266
2018-09-25T09:25:48.185Z,2266
2018-09-25T09:26:49.020Z,2311
2018-09-25T09:27:50.062Z,2261
2018-09-25T09:28:51.064Z,2250
2018-09-25T09:29:51.865Z,2255
2018-09-25T09:30:52.663Z,2250
2018-09-25T09:31:53.490Z,2289
2018-09-25T09:32:54.477Z,2306
2018-09-25T09:33:55.564Z,2328
2018-09-25T09:34:56.566Z,2323
2018-09-25T09:35:58.180Z,2300
2018-09-25T09:36:59.026Z,2272
2018-09-25T09:37:59.801Z,2255
2018-09-25T09:39:00.849Z,2272
2018-09-25T09:40:01.646Z,2317
2018-09-25T09:41:02.559Z,2373
2018-09-25T09:42:03.826Z,2390
2018-09-25T09:43:05.104Z,2396
2018-09-25T09:44:06.354Z,2362
2018-09-25T09:45:07.614Z,2323
2018-09-25T09:46:08.669Z,2311
2018-09-25T09:47:10.080Z,2362
2018-09-25T09:48:11.142Z,2407
2018-09-25T09:49:12.261Z,2446
2018-09-25T09:50:13.096Z,2486
2018-09-25T09:51:13.951Z,2497
2018-09-25T09:52:15.217Z,2525
2018-09-25T09:53:16.022Z,2525
2018-09-25T09:54:16.994Z,2559
2018-09-25T09:55:17.798Z,2570
2018-09-25T09:56:18.796Z,2581
2018-09-25T09:57:19.774Z,2553
2018-09-25T09:58:20.841Z,2525
2018-09-25T09:59:21.882Z,2514
2018-09-25T10:00:22.706Z,2503
2018-09-25T10:01:23.768Z,2503
2018-09-25T10:02:24.631Z,2520
2018-09-25T10:03:25.436Z,2553
2018-09-25T10:04:26.246Z,2548
2018-09-25T10:05:27.044Z,2565
2018-09-25T10:06:27.901Z,2621
2018-09-25T10:07:28.776Z,2643
2018-09-25T10:08:29.596Z,2610
2018-09-25T10:09:30.377Z,2581
2018-09-25T10:10:31.385Z,2536
2018-09-25T10:11:32.410Z,2458
2018-09-25T10:12:33.483Z,2435
2018-09-25T10:13:34.456Z,2486
2018-09-25T10:14:35.276Z,2536
2018-09-25T10:15:36.311Z,2570
2018-09-25T10:16:37.313Z,2598
2018-09-25T10:17:38.068Z,2615
2018-09-25T10:18:39.121Z,2581
2018-09-25T10:19:40.811Z,2610
2018-09-25T10:20:41.658Z,2728
2018-09-25T10:21:42.492Z,2728
2018-09-25T10:22:43.825Z,2694
2018-09-25T10:23:45.139Z,1310
2018-09-25T10:24:46.149Z,1282
2018-09-25T10:25:47.212Z,585
2018-09-25T10:26:48.498Z,523
2018-09-25T10:27:49.536Z,2356
2018-09-25T10:28:50.480Z,2683
2018-09-25T10:29:51.353Z,2728
2018-09-25T10:30:52.156Z,2761
2018-09-25T10:31:53.122Z,2790
2018-09-25T10:32:54.286Z,2835
2018-09-25T10:33:55.164Z,2919
2018-09-25T10:34:56.163Z,2975
2018-09-25T10:35:57.168Z,3009
2018-09-25T10:36:58.258Z,2975
2018-09-25T10:37:59.402Z,2880
2018-09-25T10:39:00.514Z,2913
2018-09-25T10:40:01.889Z,2930
2018-09-25T10:41:02.787Z,2846
2018-09-25T10:42:03.599Z,2806
2018-09-25T10:43:04.426Z,528
2018-09-25T10:44:05.245Z,455
2018-09-25T10:45:06.067Z,444
2018-09-25T10:46:06.844Z,495
2018-09-25T10:47:07.954Z,2272
2018-09-25T10:49:24.321Z,410
2018-09-25T10:50:25.150Z,573
2018-09-25T10:51:25.931Z,1912
2018-09-25T10:52:26.773Z,517
2018-09-25T10:53:27.547Z,1940
2018-09-25T10:54:28.360Z,2857
2018-09-25T10:55:29.193Z,1006
2018-09-25T10:56:30.162Z,523
2018-09-25T10:57:31.196Z,506
2018-09-25T10:58:32.017Z,753
2018-09-25T10:59:33.029Z,523
2018-09-25T11:00:34.062Z,568
2018-09-25T11:01:35.198Z,596
2018-09-25T11:02:35.859Z,556
2018-09-25T11:03:37.423Z,556
2018-09-25T11:04:38.648Z,579
2018-09-25T11:05:39.640Z,1074
2018-09-25T11:06:40.647Z,2761
2018-09-25T11:07:41.695Z,2829
2018-09-25T11:08:42.762Z,2700
2018-09-25T11:09:43.571Z,2418
2018-09-25T11:10:44.366Z,2019
2018-09-25T11:11:45.195Z,1951
2018-09-25T11:12:46.643Z,2137
2018-09-25T11:13:47.465Z,2345
2018-09-25T11:14:48.450Z,2475
2018-09-25T11:15:49.480Z,2323
2018-09-25T11:16:50.513Z,2413
2018-09-25T11:17:51.290Z,2520
2018-09-25T11:18:52.530Z,2446
2018-09-25T11:19:53.489Z,2283
2018-09-25T11:20:54.660Z,2632
2018-09-25T11:21:55.680Z,2705
2018-09-25T11:23:57.888Z,1636
2018-09-25T11:24:59.787Z,2176
2018-09-25T11:26:00.701Z,1659
2018-09-25T11:27:01.459Z,1271
2018-09-25T11:28:02.321Z,1479
2018-09-25T11:29:03.308Z,1721
2018-09-25T11:30:04.148Z,1344
2018-09-25T11:31:05.138Z,675
2018-09-25T11:32:06.120Z,635
2018-09-25T11:33:06.920Z,849
2018-09-25T11:34:07.919Z,3110
2018-09-25T11:35:08.981Z,1946
2018-09-25T11:36:09.957Z,1102
2018-09-25T11:37:10.758Z,843
2018-09-25T11:38:11.575Z,804
2018-09-25T11:39:12.414Z,815
2018-09-25T11:40:13.256Z,821
2018-09-25T11:41:14.090Z,838
2018-09-25T11:42:14.863Z,843
2018-09-25T11:43:15.644Z,855
2018-09-25T11:44:16.465Z,815
2018-09-25T11:45:17.496Z,815
2018-09-25T11:46:18.513Z,821
2018-09-25T11:47:19.503Z,843
2018-09-25T11:48:20.738Z,883
2018-09-25T11:49:21.780Z,1040
2018-09-25T11:50:22.705Z,911
2018-09-25T11:51:23.539Z,798
2018-09-25T11:52:24.580Z,770
2018-09-25T11:53:25.381Z,798
2018-09-25T11:54:26.419Z,832
2018-09-25T11:55:27.205Z,1260
2018-09-25T11:56:28.453Z,1243
2018-09-25T11:57:28.970Z,838
2018-09-25T11:58:29.995Z,798
2018-09-25T11:59:30.775Z,1018
2018-09-25T12:00:31.763Z,905
2018-09-25T12:01:32.812Z,911
2018-09-25T12:02:33.851Z,1006
2018-09-25T12:03:34.853Z,945
2018-09-25T12:04:35.747Z,967
2018-09-25T12:06:52.529Z,1102
2018-09-25T12:07:53.529Z,1203
2018-09-25T12:08:54.333Z,961
2018-09-25T12:09:55.380Z,1248
2018-09-25T12:10:56.163Z,1777
2018-09-25T12:11:57.537Z,2025
2018-09-25T12:12:58.383Z,2210
2018-09-25T12:13:59.211Z,2002
2018-09-25T12:15:00.205Z,2165
2018-09-25T12:16:01.243Z,2351
2018-09-25T12:17:02.112Z,2272
2018-09-25T12:18:03.105Z,1816
2018-09-25T12:19:03.917Z,2233
2018-09-25T12:20:04.928Z,2295
2018-09-25T12:21:05.892Z,2407
2018-09-25T12:22:07.132Z,2413
2018-09-25T12:23:07.986Z,2401
2018-09-25T12:24:08.786Z,2306
2018-09-25T12:25:09.563Z,2227
2018-09-25T12:26:10.357Z,2216
2018-09-25T12:27:11.177Z,2250
2018-09-25T12:28:11.952Z,2283
2018-09-25T12:29:12.949Z,2244
2018-09-25T12:30:13.970Z,2356
2018-09-25T12:31:14.951Z,2351
2018-09-25T12:32:15.964Z,2311
2018-09-25T12:33:17.008Z,2255
2018-09-25T12:34:18.049Z,2053
2018-09-25T12:35:18.881Z,2148
2018-09-25T12:36:19.699Z,2041
2018-09-25T12:37:20.503Z,1935
2018-09-25T12:38:21.316Z,1726
2018-09-25T12:39:22.134Z,1839
2018-09-25T12:40:22.947Z,1833
2018-09-25T12:41:23.743Z,1935
2018-09-25T12:42:24.752Z,1366
2018-09-25T12:43:25.576Z,1125
2018-09-25T12:44:26.568Z,978
2018-09-25T12:45:27.574Z,776
2018-09-25T12:46:28.626Z,1023
2018-09-25T12:47:29.640Z,1321
2018-09-25T12:48:30.470Z,1344
2018-09-25T12:49:31.280Z,995
2018-09-25T12:50:32.061Z,967
2018-09-25T12:51:32.913Z,759
2018-09-25T12:52:33.732Z,787
2018-09-25T12:53:34.534Z,787
2018-09-25T12:54:35.312Z,742
2018-09-25T12:55:36.118Z,691
2018-09-25T12:56:37.129Z,500
2018-09-25T12:57:38.133Z,495
2018-09-25T12:58:38.939Z,495
2018-09-25T12:59:39.973Z,405
2018-09-25T13:00:40.975Z,393
2018-09-25T13:01:42.023Z,500
2018-09-25T13:02:43.098Z,506
2018-09-25T13:03:43.968Z,354
2018-09-25T13:04:44.726Z,326
2018-09-25T13:05:45.522Z,337
2018-09-25T13:06:46.540Z,348
2018-09-25T13:07:47.406Z,354
2018-09-25T13:08:48.386Z,354
2018-09-25T13:09:49.491Z,360
2018-09-25T13:10:50.604Z,348
2018-09-25T13:11:51.610Z,337
2018-09-25T13:12:52.394Z,337
2018-09-25T13:13:53.206Z,337
2018-09-25T13:14:54.300Z,382
2018-09-25T13:15:55.104Z,478
2018-09-25T13:16:55.926Z,528
2018-09-25T13:17:56.699Z,523
2018-09-25T13:18:57.486Z,495
2018-09-25T13:19:58.351Z,472
2018-09-25T13:20:59.133Z,455
2018-09-25T13:22:00.118Z,478
2018-09-25T13:23:01.114Z,500
2018-09-25T13:24:02.115Z,500
2018-09-25T13:25:03.170Z,528
2018-09-25T13:26:04.173Z,551
2018-09-25T13:27:05.170Z,573
2018-09-25T13:28:06.226Z,601
2018-09-25T13:29:07.004Z,630
2018-09-25T13:30:07.838Z,680
2018-09-25T13:31:08.634Z,618
2018-09-25T13:32:09.461Z,613
2018-09-25T13:33:10.320Z,686
2018-09-25T13:34:11.083Z,691
2018-09-25T13:35:12.343Z,708
2018-09-25T13:36:13.341Z,618
2018-09-25T13:37:14.368Z,832
2018-09-25T13:38:15.359Z,725
2018-09-25T13:39:16.364Z,759
2018-09-25T13:40:17.344Z,590
2018-09-25T13:41:18.407Z,635
2018-09-25T13:42:20.038Z,613
2018-09-25T13:43:21.753Z,444
2018-09-25T13:44:22.630Z,427
2018-09-25T13:45:23.622Z,433
2018-09-25T13:46:24.644Z,438
2018-09-25T13:47:25.785Z,461
2018-09-25T13:48:26.784Z,478
2018-09-25T13:49:27.775Z,511
2018-09-25T13:50:28.783Z,528
2018-09-25T13:51:29.600Z,523
2018-09-25T13:52:30.713Z,534
2018-09-25T13:53:31.496Z,528
2018-09-25T13:54:32.306Z,528
2018-09-25T13:55:33.094Z,545
2018-09-25T13:56:33.875Z,534
2018-09-25T13:57:34.996Z,540
2018-09-25T13:58:36.025Z,568
2018-09-25T13:59:37.105Z,573
2018-09-25T14:00:38.101Z,579
2018-09-25T14:01:39.106Z,590
2018-09-25T14:02:40.104Z,579
2018-09-25T14:03:40.894Z,596
2018-09-25T14:04:42.659Z,624
2018-09-25T14:05:44.362Z,641
2018-09-25T14:06:45.152Z,641
2018-09-25T14:07:46.150Z,675
2018-09-25T14:08:47.125Z,686
2018-09-25T14:09:48.114Z,990
2018-09-25T14:10:48.956Z,635
2018-09-25T14:11:49.965Z,646
2018-09-25T14:12:50.970Z,630
2018-09-25T14:13:51.997Z,613
2018-09-25T14:14:53.052Z,624
2018-09-25T14:15:54.465Z,680
2018-09-25T14:16:55.530Z,675
2018-09-25T14:17:56.460Z,658
2018-09-25T14:20:13.021Z,613
2018-09-25T14:21:13.836Z,585
2018-09-25T14:22:14.671Z,562
2018-09-25T14:23:15.433Z,545
2018-09-25T14:24:16.528Z,540
2018-09-25T14:25:17.313Z,545
2018-09-25T14:26:18.337Z,545
2018-09-25T14:27:19.169Z,551
2018-09-25T14:28:19.986Z,540
2018-09-25T14:29:22.111Z,511
2018-09-25T14:30:23.557Z,466
2018-09-25T14:33:57.864Z,455
2018-09-25T14:34:59.939Z,461
2018-09-25T14:36:01.410Z,461
2018-09-25T14:37:02.394Z,455